Time;durP1;ratioP1;P1;durP2;ratioP2;P2;SDS_P1;SDS_P2;PMS_P1;PMS_P2;Temp;Humidity;BMP_temperature;BMP_pressure;BME280_temperature;BME280_humidity;BME280_pressure;Samples;Min_cycle;Max_cycle;Signal;HPM_P1;HPM_P2
2023/03/08 00:01:03;;;;;;;3.40;1.83;;;-1.40;99.90;;;;;;5113363;28;20055;-66
2023/03/08 00:03:30;;;;;;;3.45;1.88;;;-1.40;99.90;;;;;;5112100;28;20104;-66
2023/03/08 00:05:57;;;;;;;4.00;1.73;;;-1.40;99.90;;;;;;5113606;28;20047;-66
2023/03/08 00:08:24;;;;;;;4.85;1.80;;;-1.50;99.90;;;;;;5111947;28;20108;-65
2023/03/08 00:10:52;;;;;;;2.85;1.67;;;-1.50;99.90;;;;;;5113294;28;20035;-65
2023/03/08 00:13:19;;;;;;;3.33;1.70;;;-1.50;99.90;;;;;;5113379;28;20050;-66
2023/03/08 00:15:45;;;;;;;3.63;1.50;;;-1.50;99.90;;;;;;5112937;28;20047;-66
2023/03/08 00:18:12;;;;;;;4.38;1.90;;;-1.50;99.90;;;;;;5112422;28;20117;-65
2023/03/08 00:20:39;;;;;;;4.63;1.90;;;-1.50;99.90;;;;;;5113401;28;20100;-65
2023/03/08 00:23:08;;;;;;;5.03;1.70;;;-1.50;99.90;;;;;;5112509;28;20501;-65
2023/03/08 00:25:35;;;;;;;5.70;2.10;;;-1.50;99.90;;;;;;5113262;28;20423;-65
2023/03/08 00:28:03;;;;;;;4.18;1.60;;;-1.60;99.90;;;;;;5113226;28;20043;-65
2023/03/08 00:30:30;;;;;;;2.45;1.40;;;-1.60;99.90;;;;;;5112727;28;20062;-65
2023/03/08 00:32:57;;;;;;;2.85;1.70;;;-1.60;99.90;;;;;;5113145;28;20044;-65
2023/03/08 00:35:24;;;;;;;2.33;1.50;;;-1.60;99.90;;;;;;5112939;28;20100;-64
2023/03/08 00:37:50;;;;;;;2.72;1.80;;;-1.60;99.90;;;;;;5112629;28;20040;-64
2023/03/08 00:40:17;;;;;;;4.32;1.80;;;-1.70;99.90;;;;;;5111964;28;20060;-65
2023/03/08 00:42:44;;;;;;;5.30;2.05;;;-1.80;99.90;;;;;;5111804;28;20495;-64
2023/03/08 00:45:13;;;;;;;4.47;1.75;;;-1.80;99.90;;;;;;5112399;28;20449;-64
2023/03/08 00:47:40;;;;;;;3.55;1.90;;;-1.80;99.90;;;;;;5113036;28;20096;-64
2023/03/08 00:50:08;;;;;;;7.68;2.45;;;-1.80;99.90;;;;;;5110887;28;20055;-64
2023/03/08 00:52:35;;;;;;;3.65;1.73;;;-1.80;99.90;;;;;;5112254;28;20047;-64
2023/03/08 00:55:02;;;;;;;2.50;1.77;;;-1.90;99.90;;;;;;5111639;28;20084;-65
2023/03/08 00:57:30;;;;;;;3.95;1.73;;;-1.90;99.90;;;;;;5111160;28;20083;-65
2023/03/08 00:59:57;;;;;;;3.30;1.75;;;-1.90;99.90;;;;;;5111751;28;20502;-64
2023/03/08 01:02:25;;;;;;;3.90;1.83;;;-1.90;99.90;;;;;;5112703;28;20066;-64
2023/03/08 01:04:52;;;;;;;2.95;1.60;;;-1.90;99.90;;;;;;5110538;28;20051;-64
2023/03/08 01:07:21;;;;;;;4.28;1.70;;;-2.00;99.90;;;;;;5112567;28;20055;-63
2023/03/08 01:09:48;;;;;;;3.40;1.58;;;-1.90;99.90;;;;;;5111630;28;20112;-64
2023/03/08 01:12:15;;;;;;;3.72;2.05;;;-2.00;99.90;;;;;;5112010;28;20112;-64
2023/03/08 01:14:42;;;;;;;7.60;1.85;;;-2.00;99.90;;;;;;5111075;28;20050;-64
2023/03/08 01:17:08;;;;;;;3.15;1.77;;;-2.00;99.90;;;;;;5112560;28;20089;-64
2023/03/08 01:19:37;;;;;;;2.92;1.60;;;-2.00;99.90;;;;;;5111814;28;20043;-65
2023/03/08 01:22:04;;;;;;;3.50;1.80;;;-2.00;99.90;;;;;;5110251;28;20051;-64
2023/03/08 01:24:30;;;;;;;2.97;1.60;;;-2.10;99.90;;;;;;5112183;28;20457;-64
2023/03/08 01:26:59;;;;;;;2.50;1.50;;;-2.00;99.90;;;;;;5111911;28;20457;-64
2023/03/08 01:29:27;;;;;;;3.25;1.52;;;-2.00;99.90;;;;;;5112593;28;20054;-65
2023/03/08 01:31:54;;;;;;;6.70;1.50;;;-2.10;99.90;;;;;;5112508;28;20104;-65
2023/03/08 01:34:21;;;;;;;5.78;1.67;;;-2.00;99.90;;;;;;5111626;28;20093;-65
2023/03/08 01:36:49;;;;;;;2.00;1.33;;;-2.00;99.90;;;;;;5111318;28;20105;-68
2023/03/08 01:39:16;;;;;;;2.83;1.40;;;-2.00;99.90;;;;;;5112007;28;20448;-68
2023/03/08 01:41:42;;;;;;;5.25;1.50;;;-1.80;99.90;;;;;;5111159;28;20059;-68
2023/03/08 01:44:15;;;;;;;4.15;1.48;;;-2.00;99.90;;;;;;5112297;28;20044;-67
2023/03/08 01:46:42;;;;;;;3.33;1.67;;;-2.10;99.90;;;;;;5108502;28;20090;-67
2023/03/08 01:49:13;;;;;;;5.50;1.77;;;-2.00;99.90;;;;;;5111207;28;20051;-68
2023/03/08 01:51:42;;;;;;;;;;;-2.00;99.90;;;;;;5112784;28;20073;-68
2023/03/08 01:54:14;;;;;;;2.78;1.30;;;-2.00;99.90;;;;;;5111633;28;19919;-67
2023/03/08 01:56:42;;;;;;;2.45;1.30;;;-2.00;99.90;;;;;;5112217;28;20051;-68
2023/03/08 01:59:10;;;;;;;4.47;1.50;;;-2.00;99.90;;;;;;5112194;28;20491;-68
2023/03/08 02:01:38;;;;;;;5.22;1.40;;;-2.00;99.90;;;;;;5108514;28;20047;-66
2023/03/08 02:04:06;;;;;;;3.05;1.30;;;-2.00;99.90;;;;;;5113383;28;20055;-66
2023/03/08 02:06:34;;;;;;;4.95;1.55;;;-1.20;99.90;;;;;;5114711;28;20538;-65
2023/03/08 02:09:03;;;;;;;2.15;1.20;;;-2.00;99.90;;;;;;5115306;28;20043;-65
2023/03/08 02:11:33;;;;;;;2.10;1.40;;;-2.00;99.90;;;;;;5115845;28;20043;-65
2023/03/08 02:14:00;;;;;;;5.82;1.30;;;-2.00;99.90;;;;;;5115582;28;20054;-65
2023/03/08 02:16:27;;;;;;;6.85;1.35;;;-2.00;99.90;;;;;;5114903;28;20409;-65
2023/03/08 02:18:58;;;;;;;2.47;1.30;;;-1.90;99.90;;;;;;5114780;28;20059;-66
2023/03/08 02:21:25;;;;;;;;;;;-1.80;99.90;;;;;;5113779;28;20506;-64
2023/03/08 02:23:54;;;;;;;2.47;1.10;;;-1.80;99.90;;;;;;5115390;28;20379;-64
2023/03/08 02:26:21;;;;;;;6.05;1.30;;;-1.10;99.90;;;;;;5115595;28;20039;-64
2023/03/08 02:28:48;;;;;;;2.30;1.23;;;-1.70;99.90;;;;;;5114034;28;20051;-65
2023/03/08 02:31:15;;;;;;;3.67;1.30;;;-1.70;99.90;;;;;;5115453;28;20051;-65
2023/03/08 02:33:42;;;;;;;5.88;1.20;;;-1.70;99.90;;;;;;5115246;28;20438;-65
2023/03/08 02:36:10;;;;;;;4.50;1.50;;;-1.70;99.90;;;;;;5114844;28;20039;-65
2023/03/08 02:38:36;;;;;;;2.67;1.30;;;-1.70;99.90;;;;;;5114225;28;20487;-64
2023/03/08 02:41:05;;;;;;;3.58;1.25;;;-1.60;99.90;;;;;;5115287;28;20046;-65
2023/03/08 02:43:32;;;;;;;4.38;1.98;;;-1.70;99.90;;;;;;5114595;28;20064;-64
2023/03/08 02:45:59;;;;;;;3.88;1.20;;;-1.60;99.90;;;;;;5114190;28;20112;-64
2023/03/08 02:48:26;;;;;;;2.22;1.25;;;-1.70;99.90;;;;;;5113000;28;20047;-64
2023/03/08 02:50:53;;;;;;;5.57;1.23;;;-1.70;99.90;;;;;;5113390;28;20112;-65
2023/03/08 02:53:19;;;;;;;1.98;1.23;;;-1.60;99.90;;;;;;5113860;28;20051;-65
2023/03/08 02:55:46;;;;;;;3.45;1.40;;;-1.70;99.90;;;;;;5113755;28;21426;-65
2023/03/08 02:58:15;;;;;;;2.53;1.45;;;-1.70;99.90;;;;;;5114490;28;20089;-65
2023/03/08 03:00:42;;;;;;;2.72;1.38;;;-1.70;99.90;;;;;;5113782;28;20116;-65
2023/03/08 03:03:09;;;;;;;4.90;1.60;;;-1.70;99.90;;;;;;5114397;28;20491;-64
2023/03/08 03:05:41;;;;;;;5.97;1.65;;;-1.80;99.90;;;;;;5112200;28;20040;-64
2023/03/08 03:08:08;;;;;;;3.03;1.35;;;-1.80;99.90;;;;;;5114782;28;20492;-65
2023/03/08 03:10:35;;;;;;;3.40;1.27;;;-1.80;99.90;;;;;;5114521;28;20054;-65
2023/03/08 03:13:03;;;;;;;3.22;1.30;;;-1.80;99.90;;;;;;5114333;28;20047;-65
2023/03/08 03:15:31;;;;;;;3.67;1.10;;;-1.80;99.90;;;;;;5114203;28;20040;-65
2023/03/08 03:17:58;;;;;;;2.78;1.50;;;-1.90;99.90;;;;;;5114060;28;20048;-65
2023/03/08 03:20:25;;;;;;;5.97;1.55;;;-1.90;99.90;;;;;;5113350;28;20044;-65
2023/03/08 03:22:52;;;;;;;6.63;1.65;;;-1.90;99.90;;;;;;5112211;28;20043;-65
2023/03/08 03:25:19;;;;;;;2.92;1.60;;;-1.90;99.90;;;;;;5113899;28;20048;-65
2023/03/08 03:27:46;;;;;;;3.33;1.40;;;-1.90;99.90;;;;;;5112197;28;20047;-65
2023/03/08 03:30:13;;;;;;;4.45;1.50;;;-1.90;99.90;;;;;;5114467;28;20051;-65
2023/03/08 03:32:41;;;;;;;3.28;1.92;;;-2.00;99.90;;;;;;5113781;28;20085;-65
2023/03/08 03:35:09;;;;;;;4.32;1.60;;;-2.00;99.90;;;;;;5114117;28;20104;-65
2023/03/08 03:37:36;;;;;;;2.20;1.27;;;-2.00;99.90;;;;;;5113030;28;20051;-65
2023/03/08 03:40:03;;;;;;;5.22;1.50;;;-2.00;99.90;;;;;;5113570;28;20055;-64
2023/03/08 03:42:30;;;;;;;8.10;2.42;;;-2.00;99.90;;;;;;5114214;28;20456;-65
2023/03/08 03:44:57;;;;;;;5.95;1.42;;;-2.00;99.90;;;;;;5112703;28;20051;-65
2023/03/08 03:47:24;;;;;;;3.13;1.38;;;-2.00;99.90;;;;;;5113474;28;20089;-65
2023/03/08 03:49:52;;;;;;;3.25;1.30;;;-2.00;99.90;;;;;;5114034;28;20100;-65
2023/03/08 03:52:19;;;;;;;3.33;1.42;;;-2.10;99.90;;;;;;5110975;28;20051;-65
2023/03/08 03:54:46;;;;;;;4.72;1.33;;;-2.10;99.90;;;;;;5112065;28;20055;-65
2023/03/08 03:57:13;;;;;;;3.17;1.20;;;-2.10;99.90;;;;;;5112856;28;20184;-65
2023/03/08 03:59:40;;;;;;;2.75;1.60;;;-2.10;99.90;;;;;;5113758;28;20438;-65
2023/03/08 04:02:07;;;;;;;2.33;1.33;;;-2.10;99.90;;;;;;5111897;28;20093;-66
2023/03/08 04:04:34;;;;;;;2.83;1.17;;;-2.10;99.90;;;;;;5113276;28;20112;-66
2023/03/08 04:07:02;;;;;;;2.88;1.30;;;-2.10;99.90;;;;;;5113239;28;20063;-65
2023/03/08 04:09:29;;;;;;;4.72;1.30;;;-2.10;99.90;;;;;;5112677;28;20533;-65
2023/03/08 04:12:01;;;;;;;2.50;1.20;;;-2.00;99.90;;;;;;5113763;28;20044;-65
2023/03/08 04:14:28;;;;;;;6.40;1.27;;;-2.00;99.90;;;;;;5111289;28;20066;-66
2023/03/08 04:16:55;;;;;;;3.80;1.33;;;-2.10;99.90;;;;;;5112126;28;20480;-64
2023/03/08 04:19:21;;;;;;;7.00;1.85;;;-2.10;99.90;;;;;;5113522;28;20052;-64
2023/03/08 04:21:48;;;;;;;4.55;1.48;;;-2.10;99.90;;;;;;5112759;28;20499;-64
2023/03/08 04:24:17;;;;;;;4.00;1.40;;;-2.10;99.90;;;;;;5113138;28;20556;-65
2023/03/08 04:26:43;;;;;;;3.65;1.33;;;-2.10;99.90;;;;;;5112500;28;20047;-64
2023/03/08 04:29:10;;;;;;;3.92;1.45;;;-2.10;99.90;;;;;;5112490;28;20123;-65
2023/03/08 04:31:37;;;;;;;5.88;1.50;;;-2.10;99.90;;;;;;5113459;28;20043;-65
2023/03/08 04:34:05;;;;;;;4.55;1.20;;;-2.10;99.90;;;;;;5113010;28;20051;-65
2023/03/08 04:36:32;;;;;;;4.55;1.50;;;-2.10;99.90;;;;;;5112440;28;20096;-65
2023/03/08 04:38:59;;;;;;;3.22;1.17;;;-2.10;99.90;;;;;;5111992;28;20449;-65
2023/03/08 04:41:27;;;;;;;2.35;1.50;;;-2.10;99.90;;;;;;5111813;28;20105;-65
2023/03/08 04:43:56;;;;;;;2.55;1.30;;;-2.10;99.90;;;;;;5112105;28;20104;-64
2023/03/08 04:46:25;;;;;;;3.40;1.48;;;-2.10;99.90;;;;;;5112941;28;20453;-64
2023/03/08 04:48:54;;;;;;;3.53;1.60;;;-3.00;99.90;;;;;;5113007;28;20092;-65
2023/03/08 04:51:23;;;;;;;2.88;1.58;;;-2.10;99.90;;;;;;5108342;28;20120;-65
2023/03/08 04:53:50;;;;;;;3.05;1.30;;;-2.10;99.90;;;;;;5096926;28;20090;-64
2023/03/08 04:56:17;;;;;;;3.20;1.73;;;-2.00;99.90;;;;;;5101941;28;20059;-64
2023/03/08 04:58:46;;;;;;;4.70;1.48;;;-2.00;99.90;;;;;;5105520;28;20491;-64
2023/03/08 05:01:15;;;;;;;11.30;1.25;;;-2.00;99.90;;;;;;5108900;28;20078;-64
2023/03/08 05:03:43;;;;;;;2.10;1.30;;;-2.00;99.90;;;;;;5104046;28;20052;-65
2023/03/08 05:06:11;;;;;;;4.32;1.35;;;-2.00;99.90;;;;;;5107405;28;20058;-65
2023/03/08 05:08:38;;;;;;;3.03;1.40;;;-2.00;99.90;;;;;;5106788;28;20047;-65
2023/03/08 05:11:05;;;;;;;3.17;1.38;;;-2.00;99.90;;;;;;5105336;28;20073;-64
2023/03/08 05:13:33;;;;;;;5.82;1.50;;;-2.00;99.90;;;;;;5110427;28;20560;-64
2023/03/08 05:16:03;;;;;;;2.47;1.20;;;-2.00;99.90;;;;;;5106844;28;20044;-64
2023/03/08 05:18:30;;;;;;;3.47;1.35;;;-2.00;99.90;;;;;;5104268;28;20499;-64
2023/03/08 05:20:58;;;;;;;3.47;1.45;;;-2.00;99.90;;;;;;5107451;28;20155;-68
2023/03/08 05:23:26;;;;;;;3.85;1.65;;;-2.00;99.90;;;;;;5107019;28;20089;-65
2023/03/08 05:25:54;;;;;;;4.28;1.30;;;-2.00;99.90;;;;;;5110387;28;20044;-65
2023/03/08 05:28:21;;;;;;;2.53;1.40;;;-2.10;99.90;;;;;;5106175;28;20044;-64
2023/03/08 05:30:48;;;;;;;3.80;1.58;;;-2.10;99.90;;;;;;5106427;28;20488;-65
2023/03/08 05:33:18;;;;;;;3.47;1.58;;;-2.10;99.90;;;;;;5104147;28;20105;-64
2023/03/08 05:35:53;;;;;;;12.95;1.75;;;-2.10;99.90;;;;;;5102394;28;20051;-64
2023/03/08 05:38:20;;;;;;;3.20;1.42;;;-2.10;99.90;;;;;;5108037;28;20127;-65
2023/03/08 05:40:47;;;;;;;3.92;1.67;;;-2.10;99.90;;;;;;5145477;27;20044;-64
2023/03/08 05:43:14;;;;;;;2.83;1.50;;;-2.10;99.90;;;;;;5110683;28;20105;-64
2023/03/08 05:45:41;;;;;;;4.85;1.90;;;-2.10;99.90;;;;;;5109489;28;20043;-64
2023/03/08 05:48:08;;;;;;;4.72;1.50;;;-2.10;99.90;;;;;;5109449;28;20100;-64
2023/03/08 05:50:37;;;;;;;5.65;1.38;;;-2.10;99.90;;;;;;5110097;28;20056;-64
2023/03/08 05:53:04;;;;;;;2.13;1.40;;;-2.10;99.90;;;;;;5110271;28;20101;-64
2023/03/08 05:55:31;;;;;;;5.07;1.77;;;-2.10;99.90;;;;;;5109309;28;20048;-64
2023/03/08 05:57:58;;;;;;;3.60;1.35;;;-2.10;99.90;;;;;;5111640;28;20043;-65
2023/03/08 06:00:25;;;;;;;4.38;1.55;;;-2.10;99.90;;;;;;5107049;28;20476;-65
2023/03/08 06:02:52;;;;;;;3.50;1.70;;;-2.10;99.90;;;;;;5110778;28;20052;-64
2023/03/08 06:05:19;;;;;;;9.00;1.67;;;-2.10;99.90;;;;;;5106112;28;20109;-64
2023/03/08 06:07:47;;;;;;;9.05;1.90;;;-2.10;99.90;;;;;;5109173;28;20055;-65
2023/03/08 06:10:15;;;;;;;7.57;2.08;;;-2.20;99.90;;;;;;5108025;28;20047;-64
2023/03/08 06:12:42;;;;;;;3.15;1.40;;;-2.10;99.90;;;;;;5107291;28;20495;-64
2023/03/08 06:15:11;;;;;;;2.42;1.40;;;-2.10;99.90;;;;;;5108756;28;20120;-64
2023/03/08 06:17:37;;;;;;;4.75;2.38;;;-2.10;99.90;;;;;;5111332;28;20040;-64
2023/03/08 06:20:05;;;;;;;6.22;1.40;;;-2.10;99.90;;;;;;5106990;28;20050;-64
2023/03/08 06:22:32;;;;;;;4.13;1.48;;;-2.10;99.90;;;;;;5109783;28;20869;-65
2023/03/08 06:25:00;;;;;;;3.38;1.33;;;-2.10;99.90;;;;;;5109516;28;20384;-64
2023/03/08 06:27:27;;;;;;;4.65;1.92;;;-2.10;99.90;;;;;;5111807;28;20107;-64
2023/03/08 06:29:55;;;;;;;3.70;1.98;;;-2.10;99.90;;;;;;5106444;28;20047;-63
2023/03/08 06:32:22;;;;;;;4.05;1.70;;;-2.10;99.90;;;;;;5106534;28;20051;-65
2023/03/08 06:34:49;;;;;;;3.50;1.55;;;-2.00;99.90;;;;;;5107166;28;20048;-64
2023/03/08 06:37:15;;;;;;;3.88;1.80;;;-2.00;99.90;;;;;;5113737;28;20044;-64
2023/03/08 06:39:42;;;;;;;3.08;1.40;;;-2.00;99.90;;;;;;5113105;28;20062;-64
2023/03/08 06:42:11;;;;;;;4.85;1.50;;;-1.90;99.90;;;;;;5114470;28;20039;-64
2023/03/08 06:44:37;;;;;;;5.03;2.80;;;-1.90;99.90;;;;;;5113842;28;20393;-65
2023/03/08 06:47:05;;;;;;;4.57;1.95;;;-1.80;99.90;;;;;;5115391;28;20388;-64
2023/03/08 06:49:31;;;;;;;3.45;1.70;;;-1.70;99.90;;;;;;5112592;28;20097;-64
2023/03/08 06:51:58;;;;;;;6.20;1.70;;;-1.60;99.90;;;;;;5113861;28;20047;-64
2023/03/08 06:54:25;;;;;;;2.72;1.50;;;-1.50;99.90;;;;;;5113865;28;20506;-64
2023/03/08 06:56:52;;;;;;;15.80;2.22;;;-1.40;99.90;;;;;;5114307;28;20377;-64
2023/03/08 06:59:20;;;;;;;5.97;1.67;;;-1.40;99.90;;;;;;5114938;28;20416;-65
2023/03/08 07:01:47;;;;;;;7.47;2.78;;;-1.30;99.90;;;;;;5113502;28;20052;-65
2023/03/08 07:04:14;;;;;;;3.70;1.88;;;-1.20;99.90;;;;;;5112681;28;20047;-65
2023/03/08 07:06:41;;;;;;;4.50;1.80;;;-1.10;99.90;;;;;;5114531;28;20062;-65
2023/03/08 07:09:08;;;;;;;5.32;2.05;;;-1.00;99.90;;;;;;5113715;28;20483;-65
2023/03/08 07:11:34;;;;;;;4.15;1.65;;;-0.90;99.90;;;;;;5113910;28;20133;-65
2023/03/08 07:14:01;;;;;;;4.35;1.67;;;-0.90;99.90;;;;;;5114305;28;20097;-65
2023/03/08 07:16:30;;;;;;;3.20;1.85;;;-0.80;99.90;;;;;;5112987;28;20047;-66
2023/03/08 07:18:56;;;;;;;5.38;2.50;;;-0.80;99.90;;;;;;5113865;28;20109;-64
2023/03/08 07:21:24;;;;;;;4.35;2.47;;;-0.80;99.90;;;;;;5112951;28;20105;-65
2023/03/08 07:23:52;;;;;;;3.30;2.00;;;-0.80;99.90;;;;;;5114014;28;20392;-65
2023/03/08 07:26:19;;;;;;;4.50;2.20;;;-0.70;99.90;;;;;;5110803;28;20115;-65
2023/03/08 07:28:49;;;;;;;3.45;2.45;;;-0.70;99.90;;;;;;5112979;28;20054;-65
2023/03/08 07:31:16;;;;;;;4.35;2.75;;;-0.70;99.90;;;;;;5113618;28;20123;-65
2023/03/08 07:33:44;;;;;;;4.40;2.80;;;-0.70;99.90;;;;;;5113952;28;20485;-64
2023/03/08 07:36:11;;;;;;;4.35;2.72;;;-0.60;99.90;;;;;;5113901;28;20100;-64
2023/03/08 07:38:38;;;;;;;5.20;2.70;;;-0.60;99.90;;;;;;5113432;28;20040;-65
2023/03/08 07:41:05;;;;;;;3.75;2.33;;;-0.50;99.90;;;;;;5112873;28;20104;-64
2023/03/08 07:43:32;;;;;;;5.82;2.78;;;-0.40;99.90;;;;;;5113866;28;20111;-65
2023/03/08 07:46:01;;;;;;;5.65;2.63;;;-0.30;99.90;;;;;;5111866;28;20051;-64
2023/03/08 07:48:28;;;;;;;3.78;2.67;;;-0.20;99.90;;;;;;5112621;28;20122;-65
2023/03/08 07:51:02;;;;;;;6.15;2.83;;;-0.10;99.90;;;;;;5113664;28;20491;-65
2023/03/08 07:53:29;;;;;;;6.47;3.20;;;0.10;99.90;;;;;;5113131;28;20082;-64
2023/03/08 07:55:58;;;;;;;4.60;2.78;;;0.20;99.90;;;;;;5112462;28;20495;-64
2023/03/08 07:58:25;;;;;;;7.80;4.30;;;0.30;99.90;;;;;;5110610;28;20039;-65
2023/03/08 08:00:53;;;;;;;8.60;4.55;;;0.30;99.90;;;;;;5111974;28;20059;-64
2023/03/08 08:03:20;;;;;;;8.18;3.42;;;0.50;99.90;;;;;;5111934;28;20143;-65
2023/03/08 08:05:47;;;;;;;5.13;4.15;;;0.60;99.90;;;;;;5113426;28;20100;-65
2023/03/08 08:08:15;;;;;;;6.00;3.65;;;0.70;99.90;;;;;;5112024;28;20043;-65
2023/03/08 08:10:43;;;;;;;5.22;3.85;;;0.80;99.90;;;;;;5113478;28;20100;-65
2023/03/08 08:13:10;;;;;;;6.53;3.78;;;0.90;99.90;;;;;;5111801;28;20448;-65
2023/03/08 08:15:37;;;;;;;5.20;3.42;;;1.10;99.90;;;;;;5110172;28;20051;-65
2023/03/08 08:18:04;;;;;;;6.70;3.30;;;1.20;99.90;;;;;;5113143;28;20052;-65
2023/03/08 08:20:31;;;;;;;4.45;3.75;;;1.30;99.90;;;;;;5112648;28;20043;-65
2023/03/08 08:22:57;;;;;;;8.23;3.58;;;1.30;99.90;;;;;;5113434;28;20108;-65
2023/03/08 08:25:26;;;;;;;6.28;4.25;;;1.40;99.90;;;;;;5111904;28;20059;-65
2023/03/08 08:27:53;;;;;;;6.35;3.75;;;1.40;99.90;;;;;;5112655;28;20104;-65
2023/03/08 08:30:20;;;;;;;6.28;4.00;;;1.50;99.90;;;;;;5113084;28;20043;-64
2023/03/08 08:32:47;;;;;;;8.13;4.32;;;1.50;99.90;;;;;;5112984;28;20039;-65
2023/03/08 08:35:13;;;;;;;7.00;4.68;;;1.60;99.90;;;;;;5112394;28;20047;-65
2023/03/08 08:37:40;;;;;;;8.48;4.55;;;1.60;99.90;;;;;;5111701;28;20051;-64
2023/03/08 08:40:09;;;;;;;7.25;4.22;;;1.70;99.90;;;;;;5112988;28;20408;-65
2023/03/08 08:42:37;;;;;;;6.10;4.10;;;1.80;99.90;;;;;;5111241;28;20047;-65
2023/03/08 08:45:05;;;;;;;8.93;4.43;;;1.90;99.90;;;;;;5110547;28;20044;-65
2023/03/08 08:47:32;;;;;;;5.75;4.63;;;2.10;99.90;;;;;;5111712;28;20093;-65
2023/03/08 08:49:59;;;;;;;6.65;4.35;;;2.20;99.90;;;;;;5111281;28;20054;-65
2023/03/08 08:52:26;;;;;;;6.60;4.07;;;2.40;99.90;;;;;;5112504;28;20542;-64
2023/03/08 08:54:53;;;;;;;5.25;4.15;;;2.50;99.90;;;;;;5112526;28;20062;-64
2023/03/08 08:57:19;;;;;;;6.93;4.45;;;2.70;99.90;;;;;;5111905;28;20488;-64
2023/03/08 08:59:48;;;;;;;5.18;4.47;;;2.70;99.90;;;;;;5112779;28;20434;-65
2023/03/08 09:02:15;;;;;;;5.35;3.83;;;2.70;99.90;;;;;;5110388;28;20047;-65
2023/03/08 09:04:42;;;;;;;7.60;4.32;;;3.00;99.90;;;;;;5110620;28;20048;-64
2023/03/08 09:07:08;;;;;;;7.30;3.90;;;3.20;99.90;;;;;;5111513;28;20491;-66
2023/03/08 09:09:35;;;;;;;4.57;4.05;;;3.30;99.90;;;;;;5111898;28;20461;-66
2023/03/08 09:12:02;;;;;;;7.43;3.30;;;3.60;99.90;;;;;;5110845;28;20509;-66
2023/03/08 09:14:29;;;;;;;7.82;4.32;;;3.80;99.90;;;;;;5110818;28;20097;-66
2023/03/08 09:16:57;;;;;;;5.00;3.20;;;4.10;99.90;;;;;;5110672;28;20043;-66
2023/03/08 09:19:24;;;;;;;4.78;3.90;;;4.30;99.90;;;;;;5110434;28;20510;-66
2023/03/08 09:21:52;;;;;;;7.45;3.47;;;4.40;99.90;;;;;;5112378;28;20105;-65
2023/03/08 09:24:18;;;;;;;5.05;3.60;;;4.40;99.90;;;;;;5110785;28;20121;-66
2023/03/08 09:26:45;;;;;;;4.57;3.30;;;4.40;99.90;;;;;;5111303;28;20055;-65
2023/03/08 09:29:12;;;;;;;7.32;3.65;;;4.40;99.90;;;;;;5112370;28;20392;-65
2023/03/08 09:31:41;;;;;;;5.55;3.10;;;4.60;99.90;;;;;;5110709;28;20124;-65
2023/03/08 09:34:13;;;;;;;5.30;3.13;;;4.90;99.90;;;;;;5111094;28;20066;-65
2023/03/08 09:36:41;;;;;;;4.32;3.38;;;5.00;99.90;;;;;;5112409;28;20047;-64
2023/03/08 09:39:08;;;;;;;4.47;3.30;;;5.30;99.90;;;;;;5108539;28;20111;-65
2023/03/08 09:41:46;;;;;;;5.68;3.25;;;5.70;99.90;;;;;;5112070;28;20047;-65
2023/03/08 09:44:22;;;;;;;4.03;3.30;;;6.00;99.90;;;;;;5110833;28;20046;-65
2023/03/08 09:46:55;;;;;;;4.82;3.10;;;6.30;99.90;;;;;;5110397;28;20047;-65
2023/03/08 09:49:28;;;;;;;5.50;3.00;;;6.30;99.90;;;;;;5112281;28;20044;-65
2023/03/08 09:52:14;;;;;;;5.22;3.38;;;6.10;99.90;;;;;;5110508;28;20044;-65
2023/03/08 09:54:41;;;;;;;4.38;2.58;;;6.00;99.90;;;;;;5112222;28;20051;-65
2023/03/08 09:57:15;;;;;;;4.53;3.20;;;6.00;99.90;;;;;;5110121;28;20051;-65
2023/03/08 09:59:50;;;;;;;4.20;2.72;;;5.90;99.90;;;;;;5109515;28;20044;-65
2023/03/08 10:02:27;;;;;;;4.07;2.90;;;5.90;99.90;;;;;;5110239;28;20047;-65
2023/03/08 10:05:04;;;;;;;7.20;2.80;;;5.80;99.90;;;;;;5110120;28;20514;-65
2023/03/08 10:07:43;;;;;;;3.58;2.22;;;6.00;99.90;;;;;;5110354;28;20039;-64
2023/03/08 10:10:19;;;;;;;3.90;2.85;;;6.30;99.90;;;;;;5110249;28;20052;-65
2023/03/08 10:12:56;;;;;;;3.50;2.60;;;6.30;99.90;;;;;;5111189;28;20100;-65
2023/03/08 10:15:25;;;;;;;3.15;2.33;;;6.70;99.90;;;;;;5110820;28;20043;-65
2023/03/08 10:17:56;;;;;;;5.90;2.72;;;6.90;99.90;;;;;;5110482;28;20105;-65
2023/03/08 10:20:26;;;;;;;5.53;3.08;;;6.90;99.90;;;;;;5111552;28;20108;-65
2023/03/08 10:22:58;;;;;;;3.35;2.50;;;6.90;99.90;;;;;;5109842;28;20047;-67
2023/03/08 10:25:30;;;;;;;2.97;2.45;;;7.00;99.90;;;;;;5113836;28;20059;-66
2023/03/08 10:27:58;;;;;;;5.57;1.73;;;7.00;99.90;;;;;;5115089;28;20043;-66
2023/03/08 10:30:32;;;;;;;3.50;2.10;;;7.10;99.90;;;;;;5115579;28;20052;-65
2023/03/08 10:33:00;;;;;;;3.85;2.10;;;7.10;99.90;;;;;;5115415;28;20442;-66
2023/03/08 10:35:35;;;;;;;3.63;2.45;;;7.10;99.90;;;;;;5145810;27;20047;-65
2023/03/08 10:38:02;;;;;;;3.55;2.33;;;7.50;99.90;;;;;;5113050;28;20080;-66
2023/03/08 10:40:29;;;;;;;3.60;2.65;;;7.30;99.90;;;;;;5115431;28;20132;-66
2023/03/08 10:43:00;;;;;;;5.25;2.60;;;7.40;99.90;;;;;;5113656;28;20097;-66
2023/03/08 10:45:28;;;;;;;4.75;2.65;;;7.50;99.90;;;;;;5115154;28;20051;-66
2023/03/08 10:47:58;;;;;;;3.92;2.88;;;8.20;99.90;;;;;;5114556;28;20487;-66
2023/03/08 10:50:26;;;;;;;4.13;2.40;;;8.70;99.90;;;;;;5111925;28;20039;-65
2023/03/08 10:52:55;;;;;;;4.72;3.00;;;8.60;99.90;;;;;;5115120;28;20477;-65
2023/03/08 10:55:23;;;;;;;3.17;1.90;;;8.90;99.90;;;;;;5113310;28;20055;-65
2023/03/08 10:57:53;;;;;;;3.78;1.70;;;8.60;99.90;;;;;;5113827;28;20047;-66
2023/03/08 11:00:39;;;;;;;4.18;2.00;;;9.00;99.90;;;;;;5113958;28;20135;-65
2023/03/08 11:03:18;;;;;;;3.22;2.03;;;8.80;99.90;;;;;;5114035;28;20108;-65
2023/03/08 11:05:59;;;;;;;5.53;1.58;;;8.70;99.90;;;;;;5114818;28;20086;-66
2023/03/08 11:08:29;;;;;;;2.20;1.17;;;8.40;99.90;;;;;;5114752;28;20135;-65
2023/03/08 11:11:04;;;;;;;2.88;1.45;;;8.30;99.90;;;;;;5114129;28;20051;-66
2023/03/08 11:13:34;;;;;;;3.50;1.60;;;8.20;99.90;;;;;;5111268;28;20182;-66
2023/03/08 11:16:30;;;;;;;2.40;1.63;;;8.70;99.90;;;;;;5113077;28;20059;-66
2023/03/08 11:19:16;;;;;;;8.27;2.03;;;9.20;99.90;;;;;;5110857;28;20449;-65
2023/03/08 11:21:51;;;;;;;3.85;1.65;;;9.10;99.90;;;;;;5113687;28;20075;-65
2023/03/08 11:24:31;;;;;;;4.72;1.80;;;8.50;99.90;;;;;;5113656;28;20048;-65
2023/03/08 11:27:11;;;;;;;3.60;1.83;;;8.50;99.90;;;;;;5114382;28;20491;-65
2023/03/08 11:29:48;;;;;;;5.63;1.50;;;8.60;99.90;;;;;;5113312;28;20051;-65
2023/03/08 11:32:30;;;;;;;3.42;1.20;;;9.00;99.90;;;;;;5111762;28;20052;-65
2023/03/08 11:35:08;;;;;;;3.70;1.38;;;9.00;99.90;;;;;;5113511;28;20073;-66
2023/03/08 11:37:42;;;;;;;2.50;1.15;;;9.20;99.90;;;;;;5113567;28;20449;-66
2023/03/08 11:40:21;;;;;;;6.13;1.10;;;9.30;99.90;;;;;;5114157;28;20122;-66
2023/03/08 11:42:56;;;;;;;3.85;1.40;;;9.60;99.90;;;;;;5112456;28;20100;-65
2023/03/08 11:45:28;;;;;;;2.35;1.13;;;9.70;99.70;;;;;;5111435;28;20089;-65
2023/03/08 11:48:15;;;;;;;4.10;1.20;;;9.70;99.90;;;;;;5112726;28;20537;-65
2023/03/08 11:50:49;;;;;;;3.97;1.00;;;9.50;98.30;;;;;;5114004;28;20052;-65
2023/03/08 11:53:28;;;;;;;4.18;1.08;;;9.70;99.00;;;;;;5113229;28;20050;-65
2023/03/08 11:56:12;;;;;;;2.53;1.10;;;9.70;98.50;;;;;;5112900;28;20058;-65
2023/03/08 11:58:44;;;;;;;3.42;1.40;;;10.00;98.50;;;;;;5112221;28;20499;-65
2023/03/08 12:01:17;;;;;;;2.95;1.33;;;10.00;98.20;;;;;;5112661;28;20052;-65
2023/03/08 12:03:48;;;;;;;3.92;1.27;;;10.20;97.70;;;;;;5113704;28;20210;-65
2023/03/08 12:06:22;;;;;;;4.93;1.40;;;9.90;96.00;;;;;;5111153;28;20052;-65
2023/03/08 12:08:54;;;;;;;2.70;1.35;;;10.10;98.50;;;;;;5111483;28;20553;-65
2023/03/08 12:11:29;;;;;;;4.00;1.63;;;10.20;96.90;;;;;;5113604;28;20438;-65
2023/03/08 12:14:01;;;;;;;4.18;1.77;;;9.90;98.20;;;;;;5111439;28;20104;-65
2023/03/08 12:16:37;;;;;;;10.88;1.73;;;9.70;98.70;;;;;;5113729;28;20047;-65
2023/03/08 12:19:14;;;;;;;3.38;1.30;;;9.40;97.30;;;;;;5112141;28;20047;-65
2023/03/08 12:21:49;;;;;;;5.38;1.17;;;9.20;98.40;;;;;;5111222;28;20092;-65
2023/03/08 12:24:28;;;;;;;3.33;1.23;;;8.90;99.30;;;;;;5110988;28;20047;-65
2023/03/08 12:27:02;;;;;;;3.63;1.15;;;8.50;97.20;;;;;;5110140;28;20059;-65
2023/03/08 12:29:34;;;;;;;4.13;1.10;;;8.20;98.30;;;;;;5113447;28;20040;-64
2023/03/08 12:32:03;;;;;;;2.92;1.48;;;8.00;98.30;;;;;;5110252;28;20104;-65
2023/03/08 12:34:37;;;;;;;2.60;1.42;;;8.10;99.80;;;;;;5112461;28;20051;-65
2023/03/08 12:37:04;;;;;;;2.72;1.23;;;7.90;98.30;;;;;;5112213;28;20055;-65
2023/03/08 12:39:33;;;;;;;2.35;1.25;;;7.90;97.90;;;;;;5113186;28;20043;-65
2023/03/08 12:42:13;;;;;;;3.60;1.40;;;7.70;98.20;;;;;;5111113;28;20051;-65
2023/03/08 12:44:40;;;;;;;2.85;1.05;;;7.50;98.70;;;;;;5111173;28;20048;-65
2023/03/08 12:47:20;;;;;;;8.27;1.33;;;7.30;98.90;;;;;;5111091;28;20183;-65
2023/03/08 12:49:51;;;;;;;3.80;1.45;;;7.50;98.40;;;;;;5111292;28;20046;-65
2023/03/08 12:52:30;;;;;;;3.90;1.20;;;7.20;98.30;;;;;;5113070;28;20039;-65
2023/03/08 12:54:59;;;;;;;3.15;1.00;;;7.40;99.00;;;;;;5112176;28;20054;-65
2023/03/08 12:57:31;;;;;;;3.97;1.50;;;7.60;99.90;;;;;;5111823;28;20056;-65
2023/03/08 13:00:00;;;;;;;4.15;1.33;;;7.70;98.50;;;;;;5112732;28;20397;-65